createdAt,value
2022-11-16T00:02:14.709Z,97998.04
2022-11-16T00:04:44.125Z,97991.64
2022-11-16T00:07:13.328Z,97984.39
2022-11-16T00:09:42.451Z,97981.14
2022-11-16T00:12:13.104Z,97978.52
2022-11-16T00:14:42.157Z,97976.13
2022-11-16T00:17:10.964Z,97976.13
2022-11-16T00:19:40.042Z,97978.02
2022-11-16T00:22:09.194Z,97978.68
2022-11-16T00:24:38.287Z,97978.80
2022-11-16T00:27:07.060Z,97969.12
2022-11-16T00:29:36.348Z,97965.48
2022-11-16T00:32:05.286Z,97964.95
2022-11-16T00:34:34.415Z,97965.48
2022-11-16T00:37:03.333Z,97966.70
2022-11-16T00:39:32.390Z,97963.64
2022-11-16T00:42:01.475Z,97964.16
2022-11-16T00:44:30.608Z,97962.92
2022-11-16T00:46:59.755Z,97961.16
2022-11-16T00:49:29.123Z,97959.40
2022-11-16T00:51:58.272Z,97959.02
2022-11-16T00:54:27.025Z,97961.75
2022-11-16T00:56:56.646Z,97962.55
2022-11-16T00:59:25.932Z,97962.00
2022-11-16T01:01:58.789Z,97961.27
2022-11-16T01:04:28.027Z,97957.21
2022-11-16T01:06:57.032Z,97952.14
2022-11-16T01:09:27.548Z,97949.17
2022-11-16T01:12:12.898Z,97947.89
2022-11-16T01:14:45.263Z,97947.66
2022-11-16T01:17:15.396Z,97948.63
2022-11-16T01:19:44.419Z,97949.44
2022-11-16T01:22:13.399Z,97947.89
2022-11-16T01:24:43.071Z,97947.36
2022-11-16T01:27:11.967Z,97946.18
2022-11-16T01:29:44.607Z,97949.10
2022-11-16T01:32:13.448Z,97952.55
2022-11-16T01:34:43.031Z,97953.98
2022-11-16T01:37:25.962Z,97951.74
2022-11-16T01:39:55.412Z,97951.05
2022-11-16T01:42:28.257Z,97955.48
2022-11-16T01:45:16.653Z,97949.77
2022-11-16T01:47:46.832Z,97943.91
2022-11-16T01:50:19.511Z,97942.06
2022-11-16T01:53:00.355Z,97935.91
2022-11-16T01:55:36.458Z,97934.73
2022-11-16T01:58:28.680Z,97932.91
2022-11-16T02:01:02.744Z,97926.23
2022-11-16T02:03:40.324Z,97923.20
2022-11-16T02:06:16.837Z,97917.77
2022-11-16T02:09:16.164Z,97912.84
2022-11-16T02:12:25.582Z,97912.50
2022-11-16T02:15:08.648Z,97913.52
2022-11-16T02:17:52.304Z,97912.27
2022-11-16T02:20:57.092Z,97913.85
2022-11-16T02:23:47.910Z,97913.36
2022-11-16T02:26:23.345Z,97914.93
2022-11-16T02:29:37.190Z,97911.46
2022-11-16T02:32:24.624Z,97909.56
2022-11-16T02:34:56.820Z,97907.55
2022-11-16T02:37:30.933Z,97908.67
2022-11-16T02:40:03.543Z,97904.80
2022-11-16T02:42:40.749Z,97899.94
2022-11-16T02:45:12.780Z,97898.56
2022-11-16T02:47:43.672Z,97894.09
2022-11-16T02:50:19.086Z,97896.34
2022-11-16T02:52:48.420Z,97895.16
2022-11-16T02:55:17.605Z,97892.09
2022-11-16T02:57:58.999Z,97886.55
2022-11-16T03:00:43.853Z,97886.20
2022-11-16T03:03:30.714Z,97884.84
2022-11-16T03:06:09.052Z,97886.90
2022-11-16T03:08:45.713Z,97882.44
2022-11-16T03:11:33.803Z,97874.89
2022-11-16T03:14:06.892Z,97869.05
2022-11-16T03:16:41.243Z,97864.64
2022-11-16T03:19:14.833Z,97862.41
2022-11-16T03:21:55.600Z,97865.46
2022-11-16T03:24:26.133Z,97862.30
2022-11-16T03:27:00.500Z,97861.20
2022-11-16T03:29:34.662Z,97859.08
2022-11-16T03:32:22.694Z,97858.90
2022-11-16T03:35:04.831Z,97859.77
2022-11-16T03:37:35.877Z,97857.91
2022-11-16T03:40:06.579Z,97857.63
2022-11-16T03:42:36.967Z,97853.54
2022-11-16T03:45:06.099Z,97854.26
2022-11-16T03:47:34.629Z,97856.70
2022-11-16T03:50:05.547Z,97855.84
2022-11-16T03:52:35.310Z,97854.95
2022-11-16T03:55:05.499Z,97853.89
2022-11-16T03:57:35.950Z,97851.13
2022-11-16T04:00:06.925Z,97848.91
2022-11-16T04:02:42.151Z,97849.46
2022-11-16T04:05:33.232Z,97850.32
2022-11-16T04:08:20.978Z,97852.16
2022-11-16T04:11:08.851Z,97851.41
2022-11-16T04:13:57.132Z,97847.06
2022-11-16T04:16:44.978Z,97841.89
2022-11-16T04:19:32.868Z,97838.60
2022-11-16T04:22:43.434Z,97839.11
2022-11-16T04:25:20.069Z,97840.14
2022-11-16T04:28:08.752Z,97842.17
2022-11-16T04:31:25.982Z,97842.35
2022-11-16T04:34:34.209Z,97838.73
2022-11-16T04:37:22.803Z,97839.36
2022-11-16T04:39:51.466Z,97836.74
2022-11-16T04:42:22.638Z,97833.78
2022-11-16T04:45:11.704Z,97828.58
2022-11-16T04:47:49.469Z,97828.51
2022-11-16T04:50:19.802Z,97824.64
2022-11-16T04:52:49.697Z,97819.45
2022-11-16T04:55:18.534Z,97822.73
2022-11-16T04:57:47.885Z,97822.73
2022-11-16T05:00:17.413Z,97822.59
2022-11-16T05:02:46.199Z,97825.33
2022-11-16T05:05:15.403Z,97822.89
2022-11-16T05:07:45.230Z,97820.48
2022-11-16T05:10:19.604Z,97819.11
2022-11-16T05:12:48.196Z,97818.63
2022-11-16T05:15:20.032Z,97817.43
2022-11-16T05:17:51.490Z,97817.25
2022-11-16T05:20:41.530Z,97818.47
2022-11-16T05:23:30.879Z,97822.09
2022-11-16T05:26:02.732Z,97820.56
2022-11-16T05:28:32.239Z,97819.36
2022-11-16T05:31:00.930Z,97820.35
2022-11-16T05:33:30.466Z,97817.38
2022-11-16T05:35:59.671Z,97822.19
2022-11-16T05:38:28.207Z,97818.23
2022-11-16T05:40:58.465Z,97816.91
2022-11-16T05:43:27.748Z,97814.71
2022-11-16T05:46:03.107Z,97814.70
2022-11-16T05:48:32.363Z,97811.69
2022-11-16T05:51:01.836Z,97809.24
2022-11-16T05:53:33.080Z,97812.69
2022-11-16T05:56:01.803Z,97816.29
2022-11-16T05:58:31.046Z,97820.23
2022-11-16T06:01:01.759Z,97822.79
2022-11-16T06:03:30.982Z,97819.33
2022-11-16T06:06:00.011Z,97816.40
2022-11-16T06:08:30.566Z,97809.70
2022-11-16T06:11:05.699Z,97808.69
2022-11-16T06:13:35.063Z,97808.98
2022-11-16T06:16:04.049Z,97807.91
2022-11-16T06:18:33.297Z,97806.70
2022-11-16T06:21:03.242Z,97803.57
2022-11-16T06:23:32.743Z,97799.61
2022-11-16T06:26:02.090Z,97800.11
2022-11-16T06:28:32.869Z,97795.61
2022-11-16T06:31:02.190Z,97799.27
2022-11-16T06:33:33.807Z,97792.02
2022-11-16T06:36:05.003Z,97788.09
2022-11-16T06:38:34.045Z,97787.59
2022-11-16T06:41:03.729Z,97787.45
2022-11-16T06:43:33.405Z,97786.73
2022-11-16T06:46:01.948Z,97782.41
2022-11-16T06:48:31.356Z,97779.13
2022-11-16T06:51:00.612Z,97778.47
2022-11-16T06:53:30.934Z,97776.39
2022-11-16T06:56:06.565Z,97775.70
2022-11-16T06:58:42.709Z,97776.23
2022-11-16T07:01:12.916Z,97774.85
2022-11-16T07:03:43.076Z,97776.30
2022-11-16T07:06:13.814Z,97775.65
2022-11-16T07:08:44.562Z,97778.27
2022-11-16T07:11:13.522Z,97777.38
2022-11-16T07:13:42.227Z,97778.56
2022-11-16T07:16:12.764Z,97779.43
2022-11-16T07:18:46.373Z,97779.60
2022-11-16T07:21:17.124Z,97779.82
2022-11-16T07:23:46.203Z,97783.09
2022-11-16T07:26:19.216Z,97787.42
2022-11-16T07:29:11.099Z,97789.18
2022-11-16T07:31:43.234Z,97791.44
2022-11-16T07:34:28.000Z,97794.02
2022-11-16T07:37:07.476Z,97793.67
2022-11-16T07:39:36.225Z,97793.84
2022-11-16T07:42:11.893Z,97790.77
2022-11-16T07:45:07.715Z,97790.24
2022-11-16T07:47:40.680Z,97788.23
2022-11-16T07:50:12.393Z,97789.77
2022-11-16T07:52:40.987Z,97791.52
2022-11-16T07:55:18.283Z,97794.45
2022-11-16T07:57:52.960Z,97798.94
2022-11-16T08:00:25.068Z,97798.77
2022-11-16T08:02:58.886Z,97795.52
2022-11-16T08:05:28.276Z,97791.95
2022-11-16T08:07:56.818Z,97789.71
2022-11-16T08:10:26.450Z,97787.83
2022-11-16T08:12:56.304Z,97794.71
2022-11-16T08:15:25.994Z,97796.95
2022-11-16T08:17:54.873Z,97801.42
2022-11-16T08:20:23.842Z,97803.34
2022-11-16T08:22:53.266Z,97800.21
2022-11-16T08:25:21.814Z,97800.50
2022-11-16T08:27:51.056Z,97800.99
2022-11-16T08:30:20.623Z,97802.15
2022-11-16T08:32:50.068Z,97805.97
2022-11-16T08:35:19.594Z,97806.11
2022-11-16T08:37:49.413Z,97810.19
2022-11-16T08:40:18.151Z,97809.85
2022-11-16T08:42:47.141Z,97806.24
2022-11-16T08:45:18.083Z,97806.92
2022-11-16T08:47:47.132Z,97804.16
2022-11-16T08:50:17.689Z,97798.28
2022-11-16T08:52:46.720Z,97798.41
2022-11-16T08:59:05.066Z,97795.59
2022-11-16T09:01:39.923Z,97794.19
2022-11-16T09:04:08.619Z,97800.73
2022-11-16T09:06:37.298Z,97803.12
2022-11-16T09:09:06.138Z,97806.70
2022-11-16T09:11:34.769Z,97816.28
2022-11-16T09:14:03.526Z,97816.43
2022-11-16T09:16:32.286Z,97821.56
2022-11-16T09:19:01.538Z,97823.74
2022-11-16T09:21:31.158Z,97824.89
2022-11-16T09:24:00.048Z,97819.35
2022-11-16T09:26:28.899Z,97814.70
2022-11-16T09:29:00.048Z,97812.63
2022-11-16T09:31:31.976Z,97812.79
2022-11-16T09:34:00.820Z,97809.57
2022-11-16T09:36:30.223Z,97808.73
2022-11-16T09:39:41.966Z,97803.70
2022-11-16T09:42:14.140Z,97799.76
2022-11-16T09:45:12.188Z,97798.07
2022-11-16T09:47:59.682Z,97798.23
2022-11-16T09:50:47.869Z,97792.93
2022-11-16T09:53:38.543Z,97787.97
2022-11-16T09:56:28.992Z,97786.27
2022-11-16T09:59:15.029Z,97784.87
2022-11-16T10:01:58.952Z,97787.57
2022-11-16T10:04:58.787Z,97783.46
2022-11-16T10:07:37.711Z,97783.62
2022-11-16T10:10:08.937Z,97781.02
2022-11-16T10:12:52.392Z,97773.97
2022-11-16T10:16:00.645Z,97768.14
2022-11-16T10:18:49.131Z,97769.53
2022-11-16T10:21:33.362Z,97770.45
2022-11-16T10:24:43.650Z,97770.51
2022-11-16T10:27:21.959Z,97770.72
2022-11-16T10:30:09.706Z,97770.89
2022-11-16T10:32:50.721Z,97767.11
2022-11-16T10:35:43.327Z,97770.39
2022-11-16T10:38:15.436Z,97775.40
2022-11-16T10:40:50.235Z,97777.65
2022-11-16T10:43:23.844Z,97773.85
2022-11-16T10:46:14.592Z,97771.92
2022-11-16T10:49:04.784Z,97771.73
2022-11-16T10:51:33.737Z,97771.20
2022-11-16T10:54:03.577Z,97769.31
2022-11-16T10:56:37.989Z,97764.31
2022-11-16T10:59:10.528Z,97762.41
2022-11-16T11:01:48.014Z,97765.70
2022-11-16T11:04:26.014Z,97768.17
2022-11-16T11:06:58.544Z,97766.82
2022-11-16T11:09:30.856Z,97761.14
2022-11-16T11:12:37.016Z,97764.13
2022-11-16T11:15:11.900Z,97760.70
2022-11-16T11:17:43.604Z,97760.02
2022-11-16T11:20:15.492Z,97755.73
2022-11-16T11:22:52.567Z,97753.48
2022-11-16T11:25:39.164Z,97752.80
2022-11-16T11:28:17.390Z,97753.15
2022-11-16T11:31:05.326Z,97754.02
2022-11-16T11:33:42.803Z,97755.55
2022-11-16T11:36:21.930Z,97747.99
2022-11-16T11:39:06.612Z,97741.98
2022-11-16T11:41:40.619Z,97739.59
2022-11-16T11:44:18.483Z,97737.69
2022-11-16T11:47:50.492Z,97734.73
2022-11-16T11:50:02.230Z,97725.78
2022-11-16T11:52:42.721Z,97716.45
2022-11-16T11:55:17.238Z,97716.30
2022-11-16T11:57:50.320Z,97713.58
2022-11-16T12:00:19.276Z,97707.40
2022-11-16T12:03:15.708Z,97703.82
2022-11-16T12:05:57.930Z,97701.44
2022-11-16T12:08:57.530Z,97695.93
2022-11-16T12:11:46.038Z,97685.94
2022-11-16T12:14:33.562Z,97689.55
2022-11-16T12:17:23.564Z,97687.63
2022-11-16T12:20:03.697Z,97694.67
2022-11-16T12:22:35.022Z,97696.20
2022-11-16T12:25:25.767Z,97694.33
2022-11-16T12:28:04.541Z,97699.48
2022-11-16T12:30:39.277Z,97703.96
2022-11-16T12:33:30.243Z,97708.42
2022-11-16T12:36:08.668Z,97709.61
2022-11-16T12:39:07.107Z,97708.75
2022-11-16T12:41:42.815Z,97713.06
2022-11-16T12:44:15.035Z,97715.31
2022-11-16T12:47:08.559Z,97716.02
2022-11-16T12:49:49.753Z,97715.34
2022-11-16T12:52:18.684Z,97719.94
2022-11-16T12:55:26.419Z,97715.95
2022-11-16T12:58:14.742Z,97711.30
2022-11-16T13:01:10.510Z,97712.45
2022-11-16T13:03:49.346Z,97715.90
2022-11-16T13:06:30.156Z,97716.23
2022-11-16T13:09:10.962Z,97712.45
2022-11-16T13:11:47.535Z,97709.20
2022-11-16T13:14:25.428Z,97705.74
2022-11-16T13:16:55.074Z,97704.35
2022-11-16T13:19:28.952Z,97702.98
2022-11-16T13:22:29.247Z,97702.77
2022-11-16T13:25:27.749Z,97698.44
2022-11-16T13:28:16.944Z,97701.34
2022-11-16T13:31:02.117Z,97705.99
2022-11-16T13:33:47.761Z,97706.52
2022-11-16T13:36:39.670Z,97701.73
2022-11-16T13:39:08.833Z,97698.83
2022-11-16T13:41:39.754Z,97697.60
2022-11-16T13:44:21.013Z,97694.45
2022-11-16T13:47:27.909Z,97691.33
2022-11-16T13:50:00.005Z,97690.48
2022-11-16T13:53:36.505Z,97695.66
2022-11-16T13:55:43.425Z,97693.88
2022-11-16T13:58:21.731Z,97695.19
2022-11-16T14:01:11.350Z,97694.12
2022-11-16T14:03:42.534Z,97695.98
2022-11-16T14:06:22.835Z,97689.61
2022-11-16T14:09:01.487Z,97690.46
2022-11-16T14:11:40.145Z,97688.54
2022-11-16T14:14:33.587Z,97685.39
2022-11-16T14:17:02.321Z,97683.30
2022-11-16T14:19:44.651Z,97679.70
2022-11-16T14:22:42.617Z,97677.98
2022-11-16T14:25:42.244Z,97677.42
2022-11-16T14:28:25.827Z,97671.54
2022-11-16T14:31:15.854Z,97672.02
2022-11-16T14:33:51.573Z,97671.81
2022-11-16T14:36:37.832Z,97673.48
2022-11-16T14:39:16.091Z,97668.63
2022-11-16T14:41:46.771Z,97664.48
2022-11-16T14:44:22.162Z,97662.06
2022-11-16T14:46:51.860Z,97660.52
2022-11-16T14:49:21.939Z,97654.30
2022-11-16T14:51:59.964Z,97652.71
2022-11-16T14:54:43.008Z,97650.45
2022-11-16T14:57:40.379Z,97653.52
2022-11-16T15:00:25.221Z,97660.89
2022-11-16T15:03:02.102Z,97655.88
2022-11-16T15:05:37.085Z,97654.67
2022-11-16T15:08:18.234Z,97647.65
2022-11-16T15:10:52.429Z,97647.98
2022-11-16T15:13:24.233Z,97645.08
2022-11-16T15:16:17.151Z,97648.83
2022-11-16T15:19:02.844Z,97651.89
2022-11-16T15:21:31.779Z,97649.94
2022-11-16T15:24:29.799Z,97654.38
2022-11-16T15:26:49.552Z,97655.63
2022-11-16T15:29:20.227Z,97653.77
2022-11-16T15:31:51.280Z,97658.76
2022-11-16T15:34:21.028Z,97657.21
2022-11-16T15:36:50.491Z,97659.94
2022-11-16T15:39:22.547Z,97657.20
2022-11-16T15:41:52.471Z,97656.29
2022-11-16T15:44:23.769Z,97655.94
2022-11-16T15:46:55.933Z,97653.38
2022-11-16T15:49:38.817Z,97651.81
2022-11-16T15:52:07.668Z,97651.31
2022-11-16T15:54:55.612Z,97654.38
2022-11-16T15:57:31.241Z,97654.58
2022-11-16T16:00:05.505Z,97658.88
2022-11-16T16:02:35.890Z,97657.73
2022-11-16T16:05:07.317Z,97658.29
2022-11-16T16:07:41.979Z,97658.64
2022-11-16T16:10:20.464Z,97658.48
2022-11-16T16:13:02.214Z,97663.45
2022-11-16T16:15:37.032Z,97661.23
2022-11-16T16:18:34.917Z,97661.04
2022-11-16T16:21:03.818Z,97662.42
2022-11-16T16:23:35.313Z,97662.71
2022-11-16T16:26:05.793Z,97665.21
2022-11-16T16:28:36.938Z,97663.84
2022-11-16T16:31:08.232Z,97659.56
2022-11-16T16:33:37.895Z,97654.71
2022-11-16T16:36:07.995Z,97655.36
2022-11-16T16:38:38.821Z,97654.11
2022-11-16T16:41:07.974Z,97657.07
2022-11-16T16:43:39.010Z,97655.88
2022-11-16T16:46:12.252Z,97657.27
2022-11-16T16:48:44.666Z,97661.72
2022-11-16T16:51:14.076Z,97665.20
2022-11-16T16:53:43.929Z,97668.35
2022-11-16T16:56:17.176Z,97666.58
2022-11-16T16:58:46.510Z,97664.65
2022-11-16T17:01:15.469Z,97665.83
2022-11-16T17:03:47.320Z,97664.59
2022-11-16T17:06:16.187Z,97662.47
2022-11-16T17:08:45.108Z,97663.73
2022-11-16T17:11:17.610Z,97666.15
2022-11-16T17:13:47.081Z,97661.98
2022-11-16T17:16:23.872Z,97660.84
2022-11-16T17:18:57.545Z,97657.63
2022-11-16T17:21:28.015Z,97656.81
2022-11-16T17:23:58.978Z,97653.92
2022-11-16T17:26:29.744Z,97651.98
2022-11-16T17:28:59.019Z,97653.11
2022-11-16T17:31:29.936Z,97651.68
2022-11-16T17:33:59.164Z,97649.94
2022-11-16T17:36:28.995Z,97655.73
2022-11-16T17:39:02.493Z,97655.35
2022-11-16T17:41:31.683Z,97656.83
2022-11-16T17:44:00.764Z,97659.36
2022-11-16T17:46:30.710Z,97666.33
2022-11-16T17:49:00.163Z,97667.15
2022-11-16T17:51:30.588Z,97672.55
2022-11-16T17:54:01.587Z,97671.19
2022-11-16T17:56:33.080Z,97675.19
2022-11-16T17:59:02.215Z,97668.96
2022-11-16T18:01:33.562Z,97666.93
2022-11-16T18:04:14.907Z,97666.90
2022-11-16T18:07:14.323Z,97665.09
2022-11-16T18:10:05.264Z,97668.81
2022-11-16T18:13:06.024Z,97667.79
2022-11-16T18:16:11.945Z,97665.59
2022-11-16T18:25:23.776Z,97659.05
2022-11-16T18:28:14.935Z,97661.23
2022-11-16T18:31:06.995Z,97659.44
2022-11-16T18:34:03.126Z,97661.65
2022-11-16T18:37:02.195Z,97662.26
2022-11-16T18:40:00.411Z,97667.91
2022-11-16T18:46:14.499Z,97665.23
2022-11-16T18:48:49.205Z,97665.84
2022-11-16T18:51:22.250Z,97662.50
2022-11-16T18:53:51.662Z,97661.30
2022-11-16T18:56:21.497Z,97665.27
2022-11-16T18:58:51.999Z,97665.10
2022-11-16T19:01:25.677Z,97661.94
2022-11-16T19:03:56.336Z,97659.64
2022-11-16T19:06:31.386Z,97655.77
2022-11-16T19:09:02.415Z,97659.23
2022-11-16T19:11:32.654Z,97660.27
2022-11-16T19:14:02.177Z,97659.38
2022-11-16T19:16:34.355Z,97658.03
2022-11-16T19:19:07.288Z,97652.05
2022-11-16T19:21:39.292Z,97645.24
2022-11-16T19:24:12.688Z,97646.07
2022-11-16T19:26:44.706Z,97646.95
2022-11-16T19:29:17.023Z,97647.44
2022-11-16T19:31:48.555Z,97644.92
2022-11-16T19:34:17.817Z,97646.46
2022-11-16T19:36:50.961Z,97646.05
2022-11-16T19:39:25.405Z,97642.38
2022-11-16T19:41:54.685Z,97647.65
2022-11-16T19:44:24.466Z,97645.89
2022-11-16T19:46:55.201Z,97649.34
2022-11-16T19:49:26.325Z,97646.83
2022-11-16T19:51:56.802Z,97646.48
2022-11-16T19:57:09.333Z,97645.41
2022-11-16T19:59:39.153Z,97648.04
2022-11-16T20:02:12.022Z,97650.23
2022-11-16T20:04:42.698Z,97654.14
2022-11-16T20:07:13.712Z,97654.17
2022-11-16T20:09:50.544Z,97656.77
2022-11-16T20:12:23.940Z,97649.33
2022-11-16T20:14:54.913Z,97647.52
2022-11-16T20:20:14.005Z,97643.83
2022-11-16T20:22:46.212Z,97647.00
2022-11-16T20:25:16.392Z,97645.21
2022-11-16T20:27:49.750Z,97647.61
2022-11-16T20:30:18.958Z,97643.98
2022-11-16T20:32:47.907Z,97650.15
2022-11-16T20:35:20.049Z,97648.43
2022-11-16T20:37:49.507Z,97649.83
2022-11-16T20:40:18.245Z,97646.62
2022-11-16T20:42:50.259Z,97646.67
2022-11-16T20:45:19.426Z,97647.11
2022-11-16T20:47:50.559Z,97646.94
2022-11-16T20:50:25.186Z,97649.94
2022-11-16T20:52:54.549Z,97650.46
2022-11-16T20:55:24.901Z,97650.54
2022-11-16T20:57:57.225Z,97654.91
2022-11-16T21:00:26.069Z,97653.98
2022-11-16T21:02:58.343Z,97654.92
2022-11-16T21:05:27.605Z,97654.70
2022-11-16T21:08:02.845Z,97653.46
2022-11-16T21:10:41.075Z,97654.52
2022-11-16T21:13:37.501Z,97648.14
2022-11-16T21:16:15.168Z,97652.79
2022-11-16T21:18:48.210Z,97652.94
2022-11-16T21:21:21.835Z,97653.64
2022-11-16T21:23:54.611Z,97653.46
2022-11-16T21:29:22.481Z,97651.76
2022-11-16T21:31:51.436Z,97648.53
2022-11-16T21:34:21.651Z,97645.88
2022-11-16T21:36:52.902Z,97645.52
2022-11-16T21:39:22.106Z,97649.25
2022-11-16T21:41:51.263Z,97646.70
2022-11-16T21:44:21.528Z,97649.23
2022-11-16T21:46:53.057Z,97650.17
2022-11-16T21:49:21.991Z,97655.14
2022-11-16T21:51:52.603Z,97660.80
2022-11-16T21:54:22.572Z,97657.08
2022-11-16T21:56:51.419Z,97660.51
2022-11-16T21:59:21.281Z,97663.06
2022-11-16T22:02:04.540Z,97659.83
2022-11-16T22:04:52.282Z,97662.30
2022-11-16T22:07:33.448Z,97663.05
2022-11-16T22:10:07.347Z,97668.55
2022-11-16T22:12:37.267Z,97668.86
2022-11-16T22:15:08.097Z,97675.19
2022-11-16T22:17:37.350Z,97675.38
2022-11-16T22:20:06.830Z,97676.23
2022-11-16T22:22:36.113Z,97673.55
2022-11-16T22:25:05.170Z,97673.38
2022-11-16T22:27:52.129Z,97672.88
2022-11-16T22:30:22.787Z,97668.64
2022-11-16T22:32:51.762Z,97667.67
2022-11-16T22:35:20.369Z,97664.46
2022-11-16T22:37:49.392Z,97664.83
2022-11-16T22:40:18.353Z,97664.86
2022-11-16T22:42:46.915Z,97665.30
2022-11-16T22:45:16.103Z,97668.50
2022-11-16T22:47:44.972Z,97675.34
2022-11-16T22:50:13.583Z,97669.72
2022-11-16T22:52:42.292Z,97671.39
2022-11-16T22:55:11.320Z,97668.08
2022-11-16T22:57:39.777Z,97666.71
2022-11-16T23:00:10.399Z,97666.88
2022-11-16T23:02:39.242Z,97661.63
2022-11-16T23:05:08.271Z,97660.88
2022-11-16T23:07:37.165Z,97661.18
2022-11-16T23:10:06.803Z,97663.90
2022-11-16T23:12:54.814Z,97664.91
2022-11-16T23:15:42.957Z,97662.14
2022-11-16T23:18:12.317Z,97653.40
2022-11-16T23:20:59.735Z,97661.96
2022-11-16T23:23:47.407Z,97658.36
2022-11-16T23:26:43.233Z,97653.60
2022-11-16T23:29:12.546Z,97652.19
2022-11-16T23:31:41.583Z,97650.62
2022-11-16T23:34:10.103Z,97648.74
2022-11-16T23:36:38.983Z,97645.66
2022-11-16T23:39:08.821Z,97644.77
2022-11-16T23:41:56.466Z,97638.39
2022-11-16T23:44:25.635Z,97636.23
2022-11-16T23:46:54.310Z,97634.79
2022-11-16T23:49:23.334Z,97638.91
2022-11-16T23:51:52.230Z,97638.08
2022-11-16T23:54:21.139Z,97638.70
2022-11-16T23:56:50.026Z,97634.21
2022-11-16T23:59:18.883Z,97634.73
